Terminal Aerodrome Forecast
Issued by NWS

Home | Current Version | Previous Version | Text Only | Print | Product List | Glossary On
Versions: 1 2 3 4 5 6 7 8 9 10 11 12 13 14 15 16 17 18 19 20 21 22 23 24 25
954
FTUS43 KDLH 100250 AAA
TAFHYR
TAF AMD
KHYR 100250Z 1003/1024 20007KT P6SM -SN OVC028
      TEMPO 1003/1004 1 1/2SM -SN OVC022
     FM100800 VRB03KT P6SM BKN030
     FM100900 VRB03KT P6SM BKN015
     FM101800 33005KT P6SM OVC020
     FM102000 32005KT P6SM BKN050=

USA.gov is the U.S. government's official web portal to all federal, state and local government web resources and services.